createdAt,value
2023-05-02T00:02:27.093Z,100408.72
2023-05-02T00:05:31.154Z,100410.50
2023-05-02T00:08:34.628Z,100402.19
2023-05-02T00:11:37.487Z,100404.06
2023-05-02T00:14:41.154Z,100395.16
2023-05-02T00:17:44.278Z,100390.41
2023-05-02T00:20:47.619Z,100398.25
2023-05-02T00:23:53.710Z,100389.81
2023-05-02T00:26:56.783Z,100392.53
2023-05-02T00:30:00.985Z,100386.78
2023-05-02T00:33:07.095Z,100377.34
2023-05-02T00:36:17.851Z,100384.75
2023-05-02T00:39:21.576Z,100373.16
2023-05-02T00:42:24.694Z,100383.56
2023-05-02T00:45:27.779Z,100373.00
2023-05-02T00:48:31.251Z,100378.03
2023-05-02T00:51:34.895Z,100374.59
2023-05-02T00:54:39.897Z,100376.31
2023-05-02T00:57:43.299Z,100375.13
2023-05-02T01:01:12.677Z,100366.53
2023-05-02T01:04:38.413Z,100375.56
2023-05-02T01:08:12.483Z,100374.84
2023-05-02T01:11:21.562Z,100384.47
2023-05-02T01:14:29.810Z,100376.88
2023-05-02T01:17:35.184Z,100370.91
2023-05-02T01:20:43.088Z,100370.97
2023-05-02T01:24:14.350Z,100372.94
2023-05-02T01:27:58.642Z,100363.22
2023-05-02T01:31:04.501Z,100370.06
2023-05-02T01:34:10.492Z,100366.31
2023-05-02T01:37:17.882Z,100370.66
2023-05-02T01:40:23.049Z,100355.41
2023-05-02T01:43:26.760Z,100354.31
2023-05-02T01:46:36.798Z,100368.09
2023-05-02T01:49:42.762Z,100375.41
2023-05-02T01:52:49.871Z,100370.38
2023-05-02T01:55:56.492Z,100370.75
2023-05-02T01:59:02.915Z,100363.25
2023-05-02T02:02:08.731Z,100360.00
2023-05-02T02:05:14.376Z,100363.34
2023-05-02T02:08:17.748Z,100353.09
2023-05-02T02:11:26.719Z,100357.34
2023-05-02T02:14:37.346Z,100348.28
2023-05-02T02:17:44.273Z,100351.84
2023-05-02T02:20:50.341Z,100347.91
2023-05-02T02:23:56.451Z,100349.19
2023-05-02T02:26:59.561Z,100350.78
2023-05-02T02:30:04.084Z,100347.25
2023-05-02T02:33:07.487Z,100344.34
2023-05-02T02:36:43.802Z,100342.13
2023-05-02T02:40:24.294Z,100348.53
2023-05-02T02:43:42.722Z,100345.81
2023-05-02T02:46:58.421Z,100342.47
2023-05-02T02:50:36.706Z,100345.19
2023-05-02T02:53:52.126Z,100353.53
2023-05-02T02:57:08.171Z,100350.84
2023-05-02T03:00:21.460Z,100350.84
2023-05-02T03:03:29.285Z,100360.19
2023-05-02T03:06:33.030Z,100359.41
2023-05-02T03:09:47.612Z,100349.44
2023-05-02T03:12:56.226Z,100363.66
2023-05-02T03:16:12.706Z,100359.38
2023-05-02T03:19:16.304Z,100359.84
2023-05-02T03:22:19.386Z,100365.34
2023-05-02T03:25:22.433Z,100364.09
2023-05-02T03:28:26.369Z,100371.50
2023-05-02T03:31:30.696Z,100371.25
2023-05-02T03:34:34.820Z,100371.81
2023-05-02T03:37:37.975Z,100376.28
2023-05-02T03:40:41.813Z,100375.44
2023-05-02T03:43:48.342Z,100381.78
2023-05-02T03:46:54.980Z,100381.91
2023-05-02T03:49:59.532Z,100379.38
2023-05-02T03:53:04.245Z,100381.44
2023-05-02T03:56:23.388Z,100382.78
2023-05-02T03:59:37.512Z,100395.44
2023-05-02T04:02:50.963Z,100379.50
2023-05-02T04:05:57.945Z,100390.38
2023-05-02T04:09:01.476Z,100392.53
2023-05-02T04:12:11.724Z,100389.53
2023-05-02T04:15:19.277Z,100395.69
2023-05-02T04:18:28.786Z,100392.75
2023-05-02T04:21:32.100Z,100401.50
2023-05-02T04:24:36.099Z,100400.25
2023-05-02T04:27:39.484Z,100403.16
2023-05-02T04:30:48.811Z,100400.84
2023-05-02T04:33:52.487Z,100405.66
2023-05-02T04:36:59.275Z,100402.38
2023-05-02T04:40:03.857Z,100407.47
2023-05-02T04:43:10.983Z,100410.75
2023-05-02T04:46:22.249Z,100415.00
2023-05-02T04:49:25.625Z,100411.88
2023-05-02T04:52:30.148Z,100419.00
2023-05-02T04:55:33.358Z,100420.06
2023-05-02T04:58:36.488Z,100425.19
2023-05-02T05:01:45.460Z,100418.94
2023-05-02T05:04:49.373Z,100410.38
2023-05-02T05:07:56.072Z,100421.78
2023-05-02T05:11:01.931Z,100419.97
2023-05-02T05:14:08.966Z,100413.72
2023-05-02T05:17:14.814Z,100423.97
2023-05-02T05:20:18.732Z,100422.69
2023-05-02T05:23:22.971Z,100422.69
2023-05-02T05:26:27.013Z,100419.72
2023-05-02T05:29:34.253Z,100416.06
2023-05-02T05:32:37.288Z,100431.41
2023-05-02T05:35:40.663Z,100425.78
2023-05-02T05:38:43.977Z,100429.28
2023-05-02T05:41:47.832Z,100426.09
2023-05-02T05:44:51.661Z,100433.44
2023-05-02T05:47:56.003Z,100430.81
2023-05-02T05:51:06.047Z,100431.75
2023-05-02T05:54:09.587Z,100442.19
2023-05-02T05:57:14.119Z,100434.03
2023-05-02T06:00:19.270Z,100438.41
2023-05-02T06:03:26.736Z,100432.63
2023-05-02T06:06:30.850Z,100438.28
2023-05-02T06:09:34.037Z,100435.25
2023-05-02T06:12:37.659Z,100436.41
2023-05-02T06:15:42.659Z,100432.03
2023-05-02T06:18:47.690Z,100439.94
2023-05-02T06:21:51.096Z,100445.31
2023-05-02T06:24:54.305Z,100446.13
2023-05-02T06:27:57.361Z,100439.81
2023-05-02T06:31:02.505Z,100439.63
2023-05-02T06:34:05.806Z,100445.38
2023-05-02T06:37:08.835Z,100451.50
2023-05-02T06:40:12.319Z,100443.78
2023-05-02T06:43:16.268Z,100445.13
2023-05-02T06:46:20.975Z,100449.59
2023-05-02T06:49:24.430Z,100448.91
2023-05-02T06:52:31.373Z,100437.16
2023-05-02T06:55:34.976Z,100431.44
2023-05-02T06:58:38.680Z,100440.56
2023-05-02T07:01:42.152Z,100436.88
2023-05-02T07:04:45.525Z,100439.13
2023-05-02T07:07:49.659Z,100441.41
2023-05-02T07:10:53.432Z,100443.22
2023-05-02T07:13:56.462Z,100441.91
2023-05-02T07:17:00.048Z,100444.63
2023-05-02T07:20:04.178Z,100441.34
2023-05-02T07:23:07.664Z,100444.34
2023-05-02T07:26:11.070Z,100443.41
2023-05-02T07:29:15.570Z,100441.03
2023-05-02T07:32:22.012Z,100445.13
2023-05-02T07:35:25.917Z,100443.13
2023-05-02T07:38:29.182Z,100452.44
2023-05-02T07:41:32.853Z,100448.44
2023-05-02T07:44:36.989Z,100445.56
2023-05-02T07:47:40.194Z,100453.28
2023-05-02T07:50:44.323Z,100450.59
2023-05-02T07:53:52.043Z,100450.69
2023-05-02T07:56:58.376Z,100453.13
2023-05-02T08:00:02.044Z,100449.25
2023-05-02T08:03:20.094Z,100453.25
2023-05-02T08:06:23.464Z,100455.28
2023-05-02T08:09:26.702Z,100447.75
2023-05-02T08:12:29.962Z,100448.81
2023-05-02T08:15:33.309Z,100451.41
2023-05-02T08:18:36.556Z,100448.22
2023-05-02T08:21:40.370Z,100453.50
2023-05-02T08:24:44.139Z,100450.31
2023-05-02T08:27:47.399Z,100443.63
2023-05-02T08:30:51.050Z,100455.50
2023-05-02T08:33:54.281Z,100458.91
2023-05-02T08:37:00.294Z,100451.63
2023-05-02T08:40:06.627Z,100440.84
2023-05-02T08:43:13.979Z,100439.44
2023-05-02T08:46:17.943Z,100445.16
2023-05-02T08:49:22.655Z,100437.97
2023-05-02T08:52:28.504Z,100434.22
2023-05-02T08:55:35.581Z,100432.34
2023-05-02T08:58:41.701Z,100434.59
2023-05-02T09:01:52.920Z,100437.28
2023-05-02T09:05:02.311Z,100435.72
2023-05-02T09:21:22.482Z,100432.16
2023-05-02T09:24:26.054Z,100437.03
2023-05-02T09:27:29.309Z,100430.50
2023-05-02T09:30:33.053Z,100432.63
2023-05-02T09:33:37.728Z,100430.16
2023-05-02T09:36:45.371Z,100424.34
2023-05-02T09:40:06.197Z,100431.44
2023-05-02T09:43:19.266Z,100434.16
2023-05-02T09:46:22.926Z,100436.34
2023-05-02T09:49:58.486Z,100425.75
2023-05-02T09:53:05.099Z,100420.53
2023-05-02T09:56:08.616Z,100419.25
2023-05-02T09:59:16.345Z,100417.41
2023-05-02T10:02:22.022Z,100422.84
2023-05-02T10:05:26.309Z,100420.94
2023-05-02T10:08:29.403Z,100406.59
2023-05-02T10:11:33.680Z,100417.09
2023-05-02T10:14:44.087Z,100411.56
2023-05-02T10:17:50.954Z,100408.72
2023-05-02T10:20:59.037Z,100397.63
2023-05-02T10:24:05.166Z,100405.16
2023-05-02T10:27:08.812Z,100401.91
2023-05-02T10:30:13.538Z,100392.91
2023-05-02T10:33:17.608Z,100391.91
2023-05-02T10:36:22.978Z,100383.63
2023-05-02T10:39:28.013Z,100385.41
2023-05-02T10:42:31.808Z,100376.06
2023-05-02T10:45:38.409Z,100383.69
2023-05-02T10:48:42.491Z,100385.19
2023-05-02T10:51:45.990Z,100391.28
2023-05-02T10:54:49.057Z,100391.75
2023-05-02T10:57:58.785Z,100397.81
2023-05-02T11:01:29.743Z,100394.31
2023-05-02T11:05:05.344Z,100399.09
2023-05-02T11:08:15.536Z,100389.75
2023-05-02T11:11:40.980Z,100400.63
2023-05-02T11:14:45.106Z,100398.84
2023-05-02T11:18:01.848Z,100403.38
2023-05-02T11:21:32.068Z,100404.56
2023-05-02T11:24:43.007Z,100398.50
2023-05-02T11:27:49.300Z,100401.00
2023-05-02T11:30:52.592Z,100398.22
2023-05-02T11:34:00.192Z,100401.72
2023-05-02T11:40:39.024Z,100395.63
2023-05-02T11:43:42.166Z,100403.41
2023-05-02T11:46:45.903Z,100404.72
2023-05-02T11:49:57.840Z,100404.19
2023-05-02T11:50:12.268Z,100398.69
2023-05-02T11:53:01.183Z,100401.50
2023-05-02T11:56:05.110Z,100401.53
2023-05-02T11:59:08.493Z,100394.25
2023-05-02T12:02:12.243Z,100395.50
2023-05-02T12:05:15.951Z,100401.25
2023-05-02T12:08:30.142Z,100401.50
2023-05-02T12:11:33.702Z,100405.03
2023-05-02T12:14:38.108Z,100396.78
2023-05-02T12:17:43.910Z,100393.25
2023-05-02T12:20:47.802Z,100397.25
2023-05-02T12:23:51.344Z,100397.94
2023-05-02T12:27:14.827Z,100397.50
2023-05-02T12:30:31.705Z,100393.66
2023-05-02T12:33:43.362Z,100396.44
2023-05-02T12:36:48.938Z,100390.13
2023-05-02T12:39:53.574Z,100388.63
2023-05-02T12:43:04.047Z,100384.84
2023-05-02T12:46:11.326Z,100384.84
2023-05-02T12:49:14.854Z,100369.75
2023-05-02T12:52:47.180Z,100376.84
2023-05-02T12:56:02.857Z,100382.88
2023-05-02T12:59:06.390Z,100384.13
2023-05-02T13:02:10.154Z,100377.81
2023-05-02T13:05:17.210Z,100377.09
2023-05-02T13:08:21.022Z,100377.31
2023-05-02T13:11:24.486Z,100373.53
2023-05-02T13:14:27.506Z,100379.31
2023-05-02T13:17:31.031Z,100376.25
2023-05-02T13:20:34.082Z,100362.91
2023-05-02T13:23:39.524Z,100372.47
2023-05-02T13:26:42.827Z,100377.75
2023-05-02T13:29:46.379Z,100375.44
2023-05-02T13:32:49.434Z,100367.88
2023-05-02T13:35:53.073Z,100367.66
2023-05-02T13:38:56.106Z,100360.84
2023-05-02T13:41:59.592Z,100364.66
2023-05-02T13:45:06.720Z,100361.41
2023-05-02T13:48:09.723Z,100364.91
2023-05-02T13:51:12.893Z,100363.66
2023-05-02T13:54:16.240Z,100359.06
2023-05-02T13:57:19.403Z,100363.88
2023-05-02T14:00:22.310Z,100363.88
2023-05-02T14:03:25.644Z,100364.34
2023-05-02T14:06:28.705Z,100355.72
2023-05-02T14:09:31.955Z,100362.66
2023-05-02T14:12:34.848Z,100362.59
2023-05-02T14:15:38.212Z,100369.59
2023-05-02T14:18:41.914Z,100363.47
2023-05-02T14:21:44.861Z,100365.84
2023-05-02T14:24:47.760Z,100361.50
2023-05-02T14:27:50.668Z,100367.00
2023-05-02T14:30:54.153Z,100362.56
2023-05-02T14:33:57.069Z,100358.81
2023-05-02T14:37:00.207Z,100375.31
2023-05-02T14:40:03.869Z,100369.25
2023-05-02T14:43:08.459Z,100373.53
2023-05-02T14:46:11.841Z,100374.81
2023-05-02T14:49:15.241Z,100369.63
2023-05-02T14:52:18.522Z,100381.84
2023-05-02T14:55:21.818Z,100382.28
2023-05-02T14:58:24.823Z,100382.16
2023-05-02T15:01:27.908Z,100392.81
2023-05-02T15:04:31.475Z,100391.28
2023-05-02T15:07:34.621Z,100388.13
2023-05-02T15:10:40.639Z,100399.56
2023-05-02T15:13:48.602Z,100389.56
2023-05-02T15:16:53.725Z,100393.06
2023-05-02T15:19:58.535Z,100395.94
2023-05-02T15:23:03.608Z,100403.78
2023-05-02T15:26:07.160Z,100407.03
2023-05-02T15:29:10.907Z,100405.72
2023-05-02T15:32:14.994Z,100406.53
2023-05-02T15:35:18.230Z,100410.84
2023-05-02T15:38:22.255Z,100405.31
2023-05-02T15:41:27.527Z,100409.81
2023-05-02T15:44:30.913Z,100406.41
2023-05-02T15:47:34.327Z,100411.28
2023-05-02T15:50:37.660Z,100416.13
2023-05-02T15:53:42.564Z,100420.03
2023-05-02T15:56:46.760Z,100421.47
2023-05-02T15:59:50.132Z,100427.97
2023-05-02T16:03:04.032Z,100430.25
2023-05-02T16:06:07.929Z,100432.34
2023-05-02T16:09:12.995Z,100437.50
2023-05-02T16:12:15.925Z,100440.94
2023-05-02T16:15:19.500Z,100447.75
2023-05-02T16:18:28.304Z,100441.25
2023-05-02T16:21:31.873Z,100440.00
2023-05-02T16:24:34.985Z,100442.56
2023-05-02T16:27:37.857Z,100438.44
2023-05-02T16:30:41.823Z,100448.22
2023-05-02T16:33:44.973Z,100455.03
2023-05-02T16:36:48.764Z,100458.44
2023-05-02T16:39:52.403Z,100457.56
2023-05-02T16:42:55.717Z,100461.56
2023-05-02T16:46:03.645Z,100456.97
2023-05-02T16:49:06.892Z,100459.56
2023-05-02T16:52:10.222Z,100452.88
2023-05-02T16:55:13.350Z,100458.56
2023-05-02T16:58:16.466Z,100456.13
2023-05-02T17:01:19.542Z,100476.50
2023-05-02T17:04:22.942Z,100468.56
2023-05-02T17:07:25.928Z,100470.22
2023-05-02T17:10:32.979Z,100473.72
2023-05-02T17:13:36.879Z,100490.00
2023-05-02T17:16:41.195Z,100491.38
2023-05-02T17:19:44.258Z,100489.66
2023-05-02T17:22:47.857Z,100494.97
2023-05-02T17:25:51.836Z,100498.44
2023-05-02T17:28:55.676Z,100503.31
2023-05-02T17:32:00.772Z,100518.56
2023-05-02T17:35:03.806Z,100513.34
2023-05-02T17:38:07.709Z,100527.72
2023-05-02T17:41:11.837Z,100525.09
2023-05-02T17:44:16.092Z,100535.09
2023-05-02T17:47:20.186Z,100529.31
2023-05-02T17:50:23.215Z,100534.78
2023-05-02T17:53:26.616Z,100535.41
2023-05-02T17:56:37.408Z,100538.63
2023-05-02T17:59:41.766Z,100550.19
2023-05-02T18:02:45.221Z,100549.44
2023-05-02T18:05:48.596Z,100552.84
2023-05-02T18:08:51.951Z,100556.94
2023-05-02T18:11:58.678Z,100559.31
2023-05-02T18:15:05.104Z,100559.31
2023-05-02T18:18:08.656Z,100565.78
2023-05-02T18:21:12.264Z,100562.81
2023-05-02T18:24:15.288Z,100573.78
2023-05-02T18:27:18.581Z,100574.81
2023-05-02T18:30:21.648Z,100575.47
2023-05-02T18:33:27.491Z,100578.34
2023-05-02T18:36:32.081Z,100583.28
2023-05-02T18:39:36.737Z,100593.91
2023-05-02T18:42:39.905Z,100580.31
2023-05-02T18:45:45.782Z,100585.47
2023-05-02T18:48:48.953Z,100588.66
2023-05-02T18:51:53.532Z,100600.31
2023-05-02T18:54:56.492Z,100595.50
2023-05-02T18:57:59.335Z,100590.66
2023-05-02T19:01:12.016Z,100589.00
2023-05-02T19:04:15.521Z,100598.50
2023-05-02T19:07:18.807Z,100601.41
2023-05-02T19:10:21.911Z,100604.56
2023-05-02T19:13:27.234Z,100617.25
2023-05-02T19:16:30.462Z,100614.84
2023-05-02T19:19:33.905Z,100615.50
2023-05-02T19:22:37.457Z,100616.47
2023-05-02T19:25:40.799Z,100634.50
2023-05-02T19:28:44.901Z,100633.09
2023-05-02T19:31:48.147Z,100634.59
2023-05-02T19:34:52.895Z,100631.66
2023-05-02T19:37:55.996Z,100633.38
2023-05-02T19:40:59.732Z,100623.50
2023-05-02T19:44:02.947Z,100641.19
2023-05-02T19:47:06.493Z,100646.34
2023-05-02T19:50:10.714Z,100646.34
2023-05-02T19:53:14.093Z,100645.59
2023-05-02T19:56:17.221Z,100651.91
2023-05-02T19:59:20.259Z,100650.03
2023-05-02T20:02:23.570Z,100655.16
2023-05-02T20:05:26.851Z,100659.91
2023-05-02T20:08:31.457Z,100667.31
2023-05-02T20:11:34.955Z,100671.16
2023-05-02T20:14:37.974Z,100675.53
2023-05-02T20:17:41.253Z,100673.38
2023-05-02T20:20:44.812Z,100680.66
2023-05-02T20:23:48.215Z,100681.94
2023-05-02T20:26:51.491Z,100679.41
2023-05-02T20:29:54.754Z,100684.59
2023-05-02T20:33:10.466Z,100693.06
2023-05-02T20:36:18.435Z,100686.91
2023-05-02T20:39:22.035Z,100688.28
2023-05-02T20:42:26.986Z,100698.97
2023-05-02T20:45:29.942Z,100697.16
2023-05-02T20:48:33.118Z,100704.88
2023-05-02T20:51:36.670Z,100714.78
2023-05-02T20:54:40.289Z,100710.41
2023-05-02T20:57:45.693Z,100713.56
2023-05-02T21:00:52.605Z,100720.66
2023-05-02T21:03:57.238Z,100712.97
2023-05-02T21:07:01.622Z,100713.88
2023-05-02T21:10:05.252Z,100715.16
2023-05-02T21:13:08.493Z,100718.38
2023-05-02T21:16:18.885Z,100714.63
2023-05-02T21:19:22.290Z,100717.09
2023-05-02T21:22:25.458Z,100711.72
2023-05-02T21:25:28.521Z,100718.22
2023-05-02T21:28:31.599Z,100720.63
2023-05-02T21:31:34.736Z,100724.88
2023-05-02T21:34:37.886Z,100737.97
2023-05-02T21:37:40.657Z,100723.78
2023-05-02T21:40:44.109Z,100722.63
2023-05-02T21:43:47.081Z,100723.41
2023-05-02T21:46:51.343Z,100722.63
2023-05-02T21:49:56.445Z,100734.75
2023-05-02T21:52:59.665Z,100736.38
2023-05-02T21:56:02.845Z,100741.06
2023-05-02T21:59:06.713Z,100737.66
2023-05-02T22:02:10.227Z,100738.94
2023-05-02T22:05:14.077Z,100742.28
2023-05-02T22:08:17.737Z,100734.22
2023-05-02T22:11:21.872Z,100736.09
2023-05-02T22:14:33.667Z,100738.41
2023-05-02T22:17:46.195Z,100742.91
2023-05-02T22:20:49.600Z,100749.63
2023-05-02T22:23:53.349Z,100758.72
2023-05-02T22:26:56.308Z,100772.81
2023-05-02T22:30:00.046Z,100760.56
2023-05-02T22:33:03.744Z,100716.97
2023-05-02T22:36:07.285Z,100733.38
2023-05-02T22:39:13.376Z,100734.75
2023-05-02T22:42:17.262Z,100745.91
2023-05-02T22:45:20.332Z,100739.06
2023-05-02T22:48:23.883Z,100745.97
2023-05-02T22:51:27.381Z,100756.00
2023-05-02T22:54:30.664Z,100748.28
2023-05-02T22:57:33.988Z,100747.81
2023-05-02T23:00:37.324Z,100749.00
2023-05-02T23:03:41.569Z,100748.91
2023-05-02T23:06:45.470Z,100749.75
2023-05-02T23:09:48.547Z,100758.25
2023-05-02T23:12:51.989Z,100755.00
2023-05-02T23:15:55.801Z,100755.69
2023-05-02T23:18:58.968Z,100749.03
2023-05-02T23:22:02.986Z,100754.91
2023-05-02T23:25:07.950Z,100752.63
2023-05-02T23:28:12.503Z,100753.72
2023-05-02T23:31:15.827Z,100747.09
2023-05-02T23:34:19.457Z,100735.53
2023-05-02T23:37:24.108Z,100744.16
2023-05-02T23:40:28.426Z,100733.91
2023-05-02T23:43:31.937Z,100736.28
2023-05-02T23:46:35.362Z,100736.66
2023-05-02T23:49:38.667Z,100750.66
2023-05-02T23:52:42.209Z,100740.78
2023-05-02T23:55:45.198Z,100737.19
2023-05-02T23:58:48.629Z,100734.28
